createdAt,value
2023-05-01T00:00:55.166Z,958.12
2023-05-01T00:01:55.067Z,958.12
2023-05-01T00:02:55.150Z,958.06
2023-05-01T00:03:55.239Z,958.05
2023-05-01T00:04:55.117Z,958.04
2023-05-01T00:05:58.074Z,958.05
2023-05-01T00:06:55.054Z,958.05
2023-05-01T00:07:55.948Z,958.02
2023-05-01T00:08:54.971Z,958.00
2023-05-01T00:09:55.187Z,957.98
2023-05-01T00:10:55.020Z,958.01
2023-05-01T00:11:54.951Z,957.99
2023-05-01T00:12:54.941Z,958.02
2023-05-01T00:13:54.906Z,957.97
2023-05-01T00:14:54.937Z,958.00
2023-05-01T00:15:54.972Z,957.97
2023-05-01T00:16:55.299Z,958.00
2023-05-01T00:17:54.927Z,957.99
2023-05-01T00:18:54.887Z,957.97
2023-05-01T00:19:55.114Z,957.98
2023-05-01T00:20:57.865Z,957.97
2023-05-01T00:21:54.895Z,957.97
2023-05-01T00:22:54.842Z,957.95
2023-05-01T00:23:54.897Z,957.95
2023-05-01T00:24:54.820Z,957.96
2023-05-01T00:25:54.830Z,957.96
2023-05-01T00:26:54.777Z,957.97
2023-05-01T00:27:54.798Z,957.97
2023-05-01T00:28:55.721Z,957.99
2023-05-01T00:29:55.031Z,958.02
2023-05-01T00:30:54.760Z,958.01
2023-05-01T00:31:54.824Z,957.97
2023-05-01T00:32:54.738Z,958.01
2023-05-01T00:33:54.692Z,958.01
2023-05-01T00:34:54.683Z,958.04
2023-05-01T00:35:57.718Z,957.99
2023-05-01T00:36:54.705Z,958.03
2023-05-01T00:37:54.682Z,958.06
2023-05-01T00:38:54.718Z,957.95
2023-05-01T00:39:54.902Z,958.03
2023-05-01T00:40:54.636Z,958.04
2023-05-01T00:41:54.608Z,958.02
2023-05-01T00:42:54.612Z,958.01
2023-05-01T00:43:54.627Z,958.01
2023-05-01T00:44:54.577Z,958.02
2023-05-01T00:45:54.632Z,958.06
2023-05-01T00:46:54.566Z,958.02
2023-05-01T00:47:54.578Z,958.05
2023-05-01T00:48:54.540Z,958.02
2023-05-01T00:49:54.749Z,958.00
2023-05-01T00:50:57.547Z,958.01
2023-05-01T00:51:54.533Z,958.00
2023-05-01T00:52:54.535Z,957.96
2023-05-01T00:53:54.528Z,957.99
2023-05-01T00:54:54.480Z,957.98
2023-05-01T00:55:54.485Z,957.98
2023-05-01T00:56:54.483Z,957.96
2023-05-01T00:57:54.466Z,957.98
2023-05-01T00:58:55.422Z,957.94
2023-05-01T00:59:54.799Z,957.95
2023-05-01T01:01:56.289Z,957.95
2023-05-01T01:02:54.430Z,957.94
2023-05-01T01:03:54.549Z,957.94
2023-05-01T01:04:54.471Z,957.92
2023-05-01T01:05:57.416Z,957.94
2023-05-01T01:06:54.349Z,957.91
2023-05-01T01:07:54.359Z,957.86
2023-05-01T01:08:54.356Z,957.87
2023-05-01T01:09:54.447Z,957.88
2023-05-01T01:10:54.308Z,957.88
2023-05-01T01:11:54.321Z,957.87
2023-05-01T01:12:54.278Z,957.89
2023-05-01T01:13:54.294Z,957.84
2023-05-01T01:14:54.255Z,957.87
2023-05-01T01:15:54.272Z,957.79
2023-05-01T01:16:54.309Z,957.83
2023-05-01T01:17:54.243Z,957.81
2023-05-01T01:18:54.221Z,957.83
2023-05-01T01:19:54.496Z,957.84
2023-05-01T01:20:57.200Z,957.82
2023-05-01T01:21:54.206Z,957.84
2023-05-01T01:22:54.181Z,957.84
2023-05-01T01:23:54.168Z,957.80
2023-05-01T01:24:54.165Z,957.80
2023-05-01T01:25:54.167Z,957.83
2023-05-01T01:26:54.165Z,957.83
2023-05-01T01:27:54.187Z,957.75
2023-05-01T01:28:54.166Z,957.79
2023-05-01T01:29:54.332Z,957.79
2023-05-01T01:30:54.182Z,957.78
2023-05-01T01:31:54.143Z,957.78
2023-05-01T01:32:54.121Z,957.75
2023-05-01T01:33:54.086Z,957.76
2023-05-01T01:34:54.078Z,957.79
2023-05-01T01:35:57.056Z,957.83
2023-05-01T01:36:54.060Z,957.82
2023-05-01T01:37:54.019Z,957.80
2023-05-01T01:38:54.011Z,957.79
2023-05-01T01:39:54.457Z,957.77
2023-05-01T01:40:54.013Z,957.82
2023-05-01T01:41:53.973Z,957.82
2023-05-01T01:42:54.129Z,957.81
2023-05-01T01:43:53.993Z,957.83
2023-05-01T01:44:53.944Z,957.84
2023-05-01T01:45:53.990Z,957.82
2023-05-01T01:46:53.961Z,957.84
2023-05-01T01:47:53.950Z,957.82
2023-05-01T01:48:53.937Z,957.83
2023-05-01T01:49:54.332Z,957.85
2023-05-01T01:50:56.879Z,957.87
2023-05-01T01:51:53.895Z,957.86
2023-05-01T01:52:53.865Z,957.89
2023-05-01T01:53:53.881Z,957.89
2023-05-01T01:54:53.914Z,957.90
2023-05-01T01:55:53.829Z,957.90
2023-05-01T01:56:53.816Z,957.89
2023-05-01T01:57:53.807Z,957.85
2023-05-01T01:58:53.856Z,957.88
2023-05-01T01:59:53.934Z,957.84
2023-05-01T02:00:53.766Z,957.83
2023-05-01T02:01:53.819Z,957.82
2023-05-01T02:02:53.999Z,957.83
2023-05-01T02:03:53.826Z,957.81
2023-05-01T02:04:53.730Z,957.82
2023-05-01T02:05:56.809Z,957.83
2023-05-01T02:06:53.745Z,957.79
2023-05-01T02:07:53.705Z,957.83
2023-05-01T02:08:53.707Z,957.84
2023-05-01T02:09:53.801Z,957.81
2023-05-01T02:10:53.747Z,957.81
2023-05-01T02:11:53.688Z,957.81
2023-05-01T02:12:53.694Z,957.82
2023-05-01T02:13:53.647Z,957.79
2023-05-01T02:14:53.633Z,957.81
2023-05-01T02:15:53.699Z,957.80
2023-05-01T02:16:53.645Z,957.76
2023-05-01T02:17:53.660Z,957.77
2023-05-01T02:18:53.589Z,957.74
2023-05-01T02:19:53.827Z,957.76
2023-05-01T02:20:56.608Z,957.77
2023-05-01T02:21:53.579Z,957.76
2023-05-01T02:22:53.721Z,957.78
2023-05-01T02:23:53.538Z,957.81
2023-05-01T02:24:53.562Z,957.80
2023-05-01T02:25:53.569Z,957.78
2023-05-01T02:26:54.620Z,957.80
2023-05-01T02:27:53.684Z,957.82
2023-05-01T02:28:53.519Z,957.79
2023-05-01T02:29:53.754Z,957.77
2023-05-01T02:30:53.473Z,957.77
2023-05-01T02:31:53.548Z,957.76
2023-05-01T02:32:53.583Z,957.75
2023-05-01T02:33:53.469Z,957.74
2023-05-01T02:34:53.450Z,957.68
2023-05-01T02:35:56.443Z,957.67
2023-05-01T02:36:53.426Z,957.69
2023-05-01T02:37:53.396Z,957.71
2023-05-01T02:38:53.394Z,957.73
2023-05-01T02:39:53.393Z,957.69
2023-05-01T02:40:53.411Z,957.68
2023-05-01T02:41:53.361Z,957.67
2023-05-01T02:42:53.431Z,957.65
2023-05-01T02:43:53.342Z,957.69
2023-05-01T02:44:53.320Z,957.66
2023-05-01T02:45:53.462Z,957.71
2023-05-01T02:46:53.350Z,957.64
2023-05-01T02:47:53.315Z,957.67
2023-05-01T02:48:53.313Z,957.67
2023-05-01T02:49:53.373Z,957.67
2023-05-01T02:50:56.332Z,957.64
2023-05-01T02:51:53.257Z,957.60
2023-05-01T02:52:53.264Z,957.63
2023-05-01T02:53:53.249Z,957.62
2023-05-01T02:54:53.235Z,957.58
2023-05-01T02:55:53.228Z,957.63
2023-05-01T02:57:53.189Z,957.59
2023-05-01T02:58:53.180Z,957.55
2023-05-01T02:59:53.244Z,957.54
2023-05-01T03:00:53.234Z,957.56
2023-05-01T03:01:53.239Z,957.56
2023-05-01T03:02:53.225Z,957.53
2023-05-01T03:03:53.189Z,957.57
2023-05-01T03:04:53.143Z,957.59
2023-05-01T03:05:56.240Z,957.59
2023-05-01T03:06:53.185Z,957.61
2023-05-01T03:07:53.094Z,957.57
2023-05-01T03:08:53.120Z,957.53
2023-05-01T03:09:53.180Z,957.55
2023-05-01T03:10:53.078Z,957.51
2023-05-01T03:11:53.080Z,957.51
2023-05-01T03:12:53.164Z,957.48
2023-05-01T03:13:53.020Z,957.48
2023-05-01T03:14:53.108Z,957.47
2023-05-01T03:15:53.079Z,957.52
2023-05-01T03:16:53.073Z,957.49
2023-05-01T03:17:52.999Z,957.51
2023-05-01T03:18:52.966Z,957.50
2023-05-01T03:19:53.048Z,957.51
2023-05-01T03:20:55.981Z,957.51
2023-05-01T03:21:52.950Z,957.48
2023-05-01T03:22:52.953Z,957.47
2023-05-01T03:23:52.914Z,957.50
2023-05-01T03:24:52.936Z,957.53
2023-05-01T03:25:52.919Z,957.54
2023-05-01T03:26:52.926Z,957.52
2023-05-01T03:27:54.900Z,957.53
2023-05-01T03:28:52.905Z,957.54
2023-05-01T03:29:52.882Z,957.55
2023-05-01T03:30:52.895Z,957.52
2023-05-01T03:31:52.895Z,957.53
2023-05-01T03:32:52.898Z,957.50
2023-05-01T03:33:52.857Z,957.49
2023-05-01T03:34:52.869Z,957.52
2023-05-01T03:35:55.809Z,957.52
2023-05-01T03:36:52.798Z,957.51
2023-05-01T03:37:52.796Z,957.47
2023-05-01T03:38:52.771Z,957.53
2023-05-01T03:39:52.873Z,957.49
2023-05-01T03:40:52.767Z,957.50
2023-05-01T03:41:52.733Z,957.47
2023-05-01T03:42:52.738Z,957.52
2023-05-01T03:43:52.736Z,957.50
2023-05-01T03:44:52.706Z,957.51
2023-05-01T03:45:52.720Z,957.51
2023-05-01T03:46:52.653Z,957.48
2023-05-01T03:47:52.686Z,957.50
2023-05-01T03:48:52.688Z,957.52
2023-05-01T03:49:52.647Z,957.52
2023-05-01T03:50:55.621Z,957.52
2023-05-01T03:51:52.576Z,957.51
2023-05-01T03:52:52.627Z,957.50
2023-05-01T03:53:52.587Z,957.51
2023-05-01T03:54:52.588Z,957.50
2023-05-01T03:55:52.544Z,957.48
2023-05-01T03:56:52.527Z,957.51
2023-05-01T03:57:52.541Z,957.49
2023-05-01T03:58:52.501Z,957.48
2023-05-01T03:59:52.515Z,957.46
2023-05-01T04:00:52.538Z,957.41
2023-05-01T04:01:52.551Z,957.44
2023-05-01T04:02:52.688Z,957.44
2023-05-01T04:03:52.579Z,957.43
2023-05-01T04:04:52.429Z,957.43
2023-05-01T04:05:55.508Z,957.43
2023-05-01T04:06:52.539Z,957.44
2023-05-01T04:07:52.417Z,957.45
2023-05-01T04:08:52.392Z,957.44
2023-05-01T04:09:52.438Z,957.43
2023-05-01T04:10:52.395Z,957.45
2023-05-01T04:11:52.392Z,957.46
2023-05-01T04:12:52.357Z,957.44
2023-05-01T04:14:52.327Z,957.41
2023-05-01T04:15:52.352Z,957.45
2023-05-01T04:16:52.335Z,957.47
2023-05-01T04:17:52.365Z,957.46
2023-05-01T04:18:52.353Z,957.45
2023-05-01T04:19:52.282Z,957.51
2023-05-01T04:20:55.272Z,957.51
2023-05-01T04:21:52.294Z,957.50
2023-05-01T04:22:52.251Z,957.50
2023-05-01T04:23:52.237Z,957.50
2023-05-01T04:24:52.250Z,957.50
2023-05-01T04:25:52.221Z,957.51
2023-05-01T04:26:52.240Z,957.51
2023-05-01T04:27:52.223Z,957.55
2023-05-01T04:28:52.188Z,957.51
2023-05-01T04:29:52.279Z,957.52
2023-05-01T04:30:52.192Z,957.54
2023-05-01T04:31:52.194Z,957.53
2023-05-01T04:32:52.270Z,957.55
2023-05-01T04:33:52.160Z,957.53
2023-05-01T04:34:52.146Z,957.58
2023-05-01T04:35:55.136Z,957.59
2023-05-01T04:36:52.123Z,957.61
2023-05-01T04:37:52.115Z,957.58
2023-05-01T04:38:52.075Z,957.59
2023-05-01T04:39:52.110Z,957.59
2023-05-01T04:40:52.080Z,957.60
2023-05-01T04:41:52.043Z,957.59
2023-05-01T04:42:52.041Z,957.61
2023-05-01T04:43:52.057Z,957.61
2023-05-01T04:44:52.064Z,957.62
2023-05-01T04:45:52.025Z,957.64
2023-05-01T04:46:52.022Z,957.64
2023-05-01T04:47:52.067Z,957.64
2023-05-01T04:48:51.977Z,957.66
2023-05-01T04:49:51.959Z,957.67
2023-05-01T04:50:54.954Z,957.65
2023-05-01T04:51:51.975Z,957.68
2023-05-01T04:52:51.963Z,957.70
2023-05-01T04:53:51.961Z,957.71
2023-05-01T04:54:51.909Z,957.68
2023-05-01T04:55:51.962Z,957.69
2023-05-01T04:56:51.883Z,957.68
2023-05-01T04:57:51.885Z,957.69
2023-05-01T04:58:51.869Z,957.72
2023-05-01T04:59:51.857Z,957.68
2023-05-01T05:00:51.906Z,957.72
2023-05-01T05:01:51.906Z,957.71
2023-05-01T05:02:51.966Z,957.78
2023-05-01T05:03:52.240Z,957.77
2023-05-01T05:04:51.801Z,957.80
2023-05-01T05:05:54.843Z,957.81
2023-05-01T05:06:51.823Z,957.81
2023-05-01T05:07:51.781Z,957.86
2023-05-01T05:08:51.793Z,957.81
2023-05-01T05:09:51.746Z,957.83
2023-05-01T05:10:51.773Z,957.82
2023-05-01T05:11:51.778Z,957.83
2023-05-01T05:12:51.715Z,957.82
2023-05-01T05:13:51.738Z,957.84
2023-05-01T05:14:51.713Z,957.84
2023-05-01T05:15:51.724Z,957.86
2023-05-01T05:16:51.742Z,957.81
2023-05-01T05:17:51.919Z,957.82
2023-05-01T05:18:51.658Z,957.85
2023-05-01T05:19:51.673Z,957.88
2023-05-01T05:20:54.660Z,957.83
2023-05-01T05:21:51.629Z,957.86
2023-05-01T05:22:51.673Z,957.87
2023-05-01T05:23:51.616Z,957.83
2023-05-01T05:24:51.591Z,957.87
2023-05-01T05:25:51.627Z,957.89
2023-05-01T05:26:51.577Z,957.87
2023-05-01T05:27:51.564Z,957.87
2023-05-01T05:28:51.572Z,957.88
2023-05-01T05:30:51.661Z,957.88
2023-05-01T05:31:51.570Z,957.91
2023-05-01T05:32:51.578Z,957.90
2023-05-01T05:33:51.528Z,957.89
2023-05-01T05:35:54.477Z,957.93
2023-05-01T05:36:51.508Z,957.93
2023-05-01T05:37:51.476Z,957.90
2023-05-01T05:38:51.474Z,957.93
2023-05-01T05:39:51.433Z,957.93
2023-05-01T05:40:51.462Z,957.94
2023-05-01T05:41:51.416Z,957.96
2023-05-01T05:42:51.412Z,957.91
2023-05-01T05:43:51.455Z,957.98
2023-05-01T05:44:51.405Z,958.01
2023-05-01T05:45:51.395Z,957.95
2023-05-01T05:46:51.366Z,957.97
2023-05-01T05:47:51.473Z,957.99
2023-05-01T05:48:51.342Z,957.97
2023-05-01T05:49:51.330Z,957.97
2023-05-01T05:50:54.309Z,957.96
2023-05-01T05:51:51.335Z,957.98
2023-05-01T05:52:51.334Z,957.97
2023-05-01T05:53:51.293Z,957.95
2023-05-01T05:54:51.342Z,957.98
2023-05-01T05:55:51.264Z,957.94
2023-05-01T05:56:51.266Z,957.97
2023-05-01T05:57:51.286Z,957.95
2023-05-01T05:58:51.272Z,957.97
2023-05-01T05:59:51.238Z,958.00
2023-05-01T06:00:51.218Z,957.96
2023-05-01T06:01:51.230Z,957.98
2023-05-01T06:02:51.296Z,958.01
2023-05-01T06:03:51.239Z,958.00
2023-05-01T06:04:51.203Z,957.99
2023-05-01T06:05:54.363Z,957.99
2023-05-01T06:06:51.243Z,957.99
2023-05-01T06:07:51.179Z,957.99
2023-05-01T06:08:51.128Z,957.99
2023-05-01T06:09:51.150Z,957.96
2023-05-01T06:10:51.114Z,957.97
2023-05-01T06:11:51.101Z,957.96
2023-05-01T06:12:59.030Z,957.98
2023-05-01T06:13:52.084Z,957.98
2023-05-01T06:14:51.095Z,957.94
2023-05-01T06:15:51.111Z,957.98
2023-05-01T06:16:51.105Z,957.95
2023-05-01T06:17:51.052Z,957.96
2023-05-01T06:18:51.056Z,957.97
2023-05-01T06:19:51.055Z,957.98
2023-05-01T06:20:53.997Z,957.94
2023-05-01T06:21:51.023Z,957.96
2023-05-01T06:22:51.014Z,957.91
2023-05-01T06:23:51.016Z,957.91
2023-05-01T06:24:50.957Z,957.92
2023-05-01T06:25:50.959Z,957.95
2023-05-01T06:26:50.970Z,957.93
2023-05-01T06:27:50.961Z,957.93
2023-05-01T06:28:50.926Z,957.96
2023-05-01T06:29:50.932Z,957.92
2023-05-01T06:30:50.903Z,957.93
2023-05-01T06:31:50.969Z,957.98
2023-05-01T06:32:50.924Z,957.96
2023-05-01T06:33:50.869Z,957.91
2023-05-01T06:34:50.910Z,957.97
2023-05-01T06:35:53.835Z,957.94
2023-05-01T06:36:50.891Z,957.96
2023-05-01T06:37:50.850Z,957.95
2023-05-01T06:38:50.812Z,957.99
2023-05-01T06:39:50.831Z,957.96
2023-05-01T06:40:50.849Z,957.97
2023-05-01T06:41:50.776Z,957.97
2023-05-01T06:42:50.774Z,957.99
2023-05-01T06:43:50.766Z,957.99
2023-05-01T06:44:50.739Z,957.98
2023-05-01T06:45:50.733Z,957.96
2023-05-01T06:46:50.836Z,957.97
2023-05-01T06:47:50.801Z,958.00
2023-05-01T06:48:50.701Z,957.92
2023-05-01T06:49:50.723Z,957.95
2023-05-01T06:50:53.694Z,957.99
2023-05-01T06:51:50.700Z,958.03
2023-05-01T06:52:50.688Z,957.98
2023-05-01T06:53:50.674Z,958.01
2023-05-01T06:54:50.675Z,958.01
2023-05-01T06:55:50.657Z,958.00
2023-05-01T06:56:50.698Z,958.02
2023-05-01T06:57:50.628Z,958.02
2023-05-01T06:59:50.612Z,958.02
2023-05-01T07:00:50.758Z,958.07
2023-05-01T07:01:50.627Z,958.04
2023-05-01T07:02:50.707Z,958.06
2023-05-01T07:03:50.560Z,958.02
2023-05-01T07:04:50.529Z,958.06
2023-05-01T07:05:53.522Z,958.10
2023-05-01T07:06:50.600Z,958.07
2023-05-01T07:08:00.392Z,958.12
2023-05-01T07:08:50.508Z,958.10
2023-05-01T07:09:50.486Z,958.10
2023-05-01T07:10:50.528Z,958.09
2023-05-01T07:11:50.459Z,958.07
2023-05-01T07:12:50.484Z,958.08
2023-05-01T07:13:50.466Z,958.10
2023-05-01T07:14:50.451Z,958.10
2023-05-01T07:15:52.394Z,958.08
2023-05-01T07:16:50.556Z,958.08
2023-05-01T07:17:50.483Z,958.09
2023-05-01T07:19:50.410Z,958.08
2023-05-01T07:20:53.400Z,958.11
2023-05-01T07:21:50.469Z,958.09
2023-05-01T07:22:50.472Z,958.11
2023-05-01T07:23:50.423Z,958.10
2023-05-01T07:24:50.434Z,958.11
2023-05-01T07:25:50.477Z,958.10
2023-05-01T07:26:50.298Z,958.11
2023-05-01T07:27:50.292Z,958.14
2023-05-01T07:28:50.282Z,958.10
2023-05-01T07:29:50.270Z,958.13
2023-05-01T07:30:50.258Z,958.15
2023-05-01T07:31:50.318Z,958.12
2023-05-01T07:32:50.258Z,958.14
2023-05-01T07:33:51.111Z,958.12
2023-05-01T07:34:50.244Z,958.12
2023-05-01T07:35:53.224Z,958.13
2023-05-01T07:36:50.214Z,958.14
2023-05-01T07:37:50.190Z,958.13
2023-05-01T07:38:50.222Z,958.15
2023-05-01T07:39:50.168Z,958.16
2023-05-01T07:40:50.173Z,958.14
2023-05-01T07:41:50.292Z,958.16
2023-05-01T07:42:51.887Z,958.11
2023-05-01T07:43:50.151Z,958.16
2023-05-01T07:44:50.120Z,958.14
2023-05-01T07:45:50.235Z,958.13
2023-05-01T07:46:50.131Z,958.13
2023-05-01T07:47:50.145Z,958.17
2023-05-01T07:48:50.079Z,958.15
2023-05-01T07:49:50.090Z,958.13
2023-05-01T07:50:53.048Z,958.14
2023-05-01T07:51:50.105Z,958.17
2023-05-01T07:52:50.060Z,958.19
2023-05-01T07:53:50.032Z,958.20
2023-05-01T07:54:50.040Z,958.17
2023-05-01T07:55:50.027Z,958.16
2023-05-01T07:56:50.026Z,958.22
2023-05-01T07:57:50.100Z,958.21
2023-05-01T07:58:49.979Z,958.18
2023-05-01T07:59:49.957Z,958.20
2023-05-01T08:00:50.030Z,958.25
2023-05-01T08:01:49.937Z,958.24
2023-05-01T08:02:50.147Z,958.23
2023-05-01T08:03:51.005Z,958.26
2023-05-01T08:04:49.980Z,958.24
2023-05-01T08:05:52.925Z,958.25
2023-05-01T08:06:50.017Z,958.27
2023-05-01T08:07:49.888Z,958.31
2023-05-01T08:08:49.890Z,958.28
2023-05-01T08:09:49.868Z,958.29
2023-05-01T08:10:49.871Z,958.29
2023-05-01T08:11:49.859Z,958.31
2023-05-01T08:12:49.819Z,958.30
2023-05-01T08:13:49.855Z,958.31
2023-05-01T08:14:49.805Z,958.31
2023-05-01T08:15:49.954Z,958.31
2023-05-01T08:16:49.823Z,958.31
2023-05-01T08:17:49.855Z,958.33
2023-05-01T08:18:49.784Z,958.34
2023-05-01T08:20:52.756Z,958.38
2023-05-01T08:21:49.743Z,958.33
2023-05-01T08:22:49.723Z,958.36
2023-05-01T08:23:49.744Z,958.35
2023-05-01T08:24:49.772Z,958.35
2023-05-01T08:25:49.713Z,958.35
2023-05-01T08:26:49.719Z,958.39
2023-05-01T08:27:49.694Z,958.39
2023-05-01T08:28:49.656Z,958.45
2023-05-01T08:29:49.640Z,958.34
2023-05-01T08:31:49.716Z,958.37
2023-05-01T08:32:49.726Z,958.34
2023-05-01T08:33:49.638Z,958.37
2023-05-01T08:34:49.622Z,958.32
2023-05-01T08:35:52.649Z,958.35
2023-05-01T08:36:49.606Z,958.36
2023-05-01T08:37:49.577Z,958.34
2023-05-01T08:38:49.574Z,958.37
2023-05-01T08:39:49.561Z,958.33
2023-05-01T08:40:49.537Z,958.35
2023-05-01T08:41:49.555Z,958.33
2023-05-01T08:42:49.544Z,958.35
2023-05-01T08:43:49.506Z,958.35
2023-05-01T08:44:49.536Z,958.37
2023-05-01T08:45:49.477Z,958.34
2023-05-01T08:46:49.602Z,958.34
2023-05-01T08:47:49.537Z,958.36
2023-05-01T08:48:49.450Z,958.34
2023-05-01T08:50:52.429Z,958.36
2023-05-01T08:51:49.416Z,958.34
2023-05-01T08:53:49.415Z,958.34
2023-05-01T08:55:49.392Z,958.35
2023-05-01T08:56:49.382Z,958.41
2023-05-01T08:57:49.428Z,958.37
2023-05-01T08:58:49.351Z,958.38
2023-05-01T08:59:49.352Z,958.40
2023-05-01T09:00:49.336Z,958.36
2023-05-01T09:01:49.340Z,958.37
2023-05-01T09:02:49.342Z,958.37
2023-05-01T09:03:49.348Z,958.40
2023-05-01T09:04:49.314Z,958.40
2023-05-01T09:05:52.309Z,958.39
2023-05-01T09:06:49.428Z,958.41
2023-05-01T09:07:49.282Z,958.43
2023-05-01T09:08:49.241Z,958.46
2023-05-01T09:09:49.255Z,958.42
2023-05-01T09:10:49.262Z,958.41
2023-05-01T09:11:49.236Z,958.41
2023-05-01T09:12:49.183Z,958.36
2023-05-01T09:13:49.202Z,958.50
2023-05-01T09:14:49.188Z,958.40
2023-05-01T09:15:49.208Z,958.42
2023-05-01T09:16:49.256Z,958.42
2023-05-01T09:17:49.237Z,958.41
2023-05-01T09:18:49.126Z,958.43
2023-05-01T09:19:49.123Z,958.43
2023-05-01T09:20:52.134Z,958.45
2023-05-01T09:21:49.122Z,958.44
2023-05-01T09:22:49.189Z,958.45
2023-05-01T09:23:49.118Z,958.45
2023-05-01T09:24:49.084Z,958.48
2023-05-01T09:25:51.424Z,958.49
2023-05-01T09:26:49.131Z,958.50
2023-05-01T09:27:49.047Z,958.52
2023-05-01T09:28:49.083Z,958.51
2023-05-01T09:29:49.058Z,958.50
2023-05-01T09:31:49.054Z,958.47
2023-05-01T09:32:49.053Z,958.56
2023-05-01T09:33:49.019Z,958.52
2023-05-01T09:34:48.975Z,958.53
2023-05-01T09:35:51.985Z,958.49
2023-05-01T09:36:48.965Z,958.53
2023-05-01T09:37:48.972Z,958.52
2023-05-01T09:38:48.921Z,958.50
2023-05-01T09:39:48.956Z,958.49
2023-05-01T09:40:48.949Z,958.51
2023-05-01T09:41:48.929Z,958.50
2023-05-01T09:42:48.922Z,958.51
2023-05-01T09:43:48.883Z,958.53
2023-05-01T09:44:48.871Z,958.55
2023-05-01T09:45:48.892Z,958.51
2023-05-01T09:46:48.876Z,958.55
2023-05-01T09:47:48.911Z,958.52
2023-05-01T09:48:48.860Z,958.53
2023-05-01T09:49:48.851Z,958.53
2023-05-01T09:50:51.809Z,958.54
2023-05-01T09:51:48.835Z,958.55
2023-05-01T09:52:48.852Z,958.55
2023-05-01T09:54:48.771Z,958.53
2023-05-01T09:55:48.758Z,958.56
2023-05-01T09:56:48.746Z,958.56
2023-05-01T09:57:48.772Z,958.59
2023-05-01T09:58:48.718Z,958.59
2023-05-01T09:59:48.743Z,958.51
2023-05-01T10:00:48.889Z,958.49
2023-05-01T10:01:48.881Z,958.51
2023-05-01T10:02:48.860Z,958.54
2023-05-01T10:03:48.797Z,958.58
2023-05-01T10:04:48.665Z,958.56
2023-05-01T10:05:51.657Z,958.56
2023-05-01T10:06:48.726Z,958.57
2023-05-01T10:07:48.666Z,958.62
2023-05-01T10:08:48.880Z,958.56
2023-05-01T10:09:48.692Z,958.59
2023-05-01T10:10:48.633Z,958.56
2023-05-01T10:11:48.644Z,958.55
2023-05-01T10:12:48.616Z,958.54
2023-05-01T10:13:48.577Z,958.54
2023-05-01T10:14:48.586Z,958.53
2023-05-01T10:15:48.567Z,958.54
2023-05-01T10:16:48.578Z,958.55
2023-05-01T10:17:48.622Z,958.52
2023-05-01T10:18:48.600Z,958.53
2023-05-01T10:19:48.541Z,958.53
2023-05-01T10:20:51.541Z,958.51
2023-05-01T10:21:48.494Z,958.55
2023-05-01T10:22:48.556Z,958.52
2023-05-01T10:24:48.483Z,958.54
2023-05-01T10:25:48.450Z,958.57
2023-05-01T10:26:48.480Z,958.55
2023-05-01T10:27:48.470Z,958.54
2023-05-01T10:28:48.484Z,958.55
2023-05-01T10:29:48.610Z,958.55
2023-05-01T10:30:48.416Z,958.54
2023-05-01T10:31:48.591Z,958.55
2023-05-01T10:32:48.705Z,958.54
2023-05-01T10:33:48.398Z,958.51
2023-05-01T10:34:48.510Z,958.53
2023-05-01T10:35:51.389Z,958.54
2023-05-01T10:36:48.431Z,958.53
2023-05-01T10:37:48.318Z,958.49
2023-05-01T10:38:48.353Z,958.50
2023-05-01T10:39:48.345Z,958.54
2023-05-01T10:40:48.324Z,958.54
2023-05-01T10:41:48.293Z,958.52
2023-05-01T10:42:48.283Z,958.50
2023-05-01T10:43:48.283Z,958.51
2023-05-01T10:44:48.259Z,958.46
2023-05-01T10:46:48.361Z,958.45
2023-05-01T10:47:48.282Z,958.46
2023-05-01T10:49:48.197Z,958.43
2023-05-01T10:50:51.246Z,958.41
2023-05-01T10:52:48.171Z,958.43
2023-05-01T10:53:48.153Z,958.43
2023-05-01T10:54:48.140Z,958.41
2023-05-01T10:55:48.162Z,958.41
2023-05-01T10:57:48.153Z,958.39
2023-05-01T10:59:48.121Z,958.39
2023-05-01T11:00:48.090Z,958.39
2023-05-01T11:01:48.274Z,958.36
2023-05-01T11:02:48.079Z,958.37
2023-05-01T11:03:48.059Z,958.40
2023-05-01T11:04:48.089Z,958.38
2023-05-01T11:05:51.122Z,958.34
2023-05-01T11:07:48.009Z,958.41
2023-05-01T11:08:48.006Z,958.41
2023-05-01T11:09:48.030Z,958.37
2023-05-01T11:10:47.983Z,958.39
2023-05-01T11:12:48.015Z,958.33
2023-05-01T11:13:48.008Z,958.39
2023-05-01T11:15:47.956Z,958.31
2023-05-01T11:16:47.954Z,958.34
2023-05-01T11:17:48.003Z,958.33
2023-05-01T11:18:47.908Z,958.34
2023-05-01T11:19:47.944Z,958.36
2023-05-01T11:20:50.908Z,958.39
2023-05-01T11:21:47.970Z,958.37
2023-05-01T11:22:47.872Z,958.34
2023-05-01T11:23:47.873Z,958.38
2023-05-01T11:24:47.917Z,958.39
2023-05-01T11:25:47.864Z,958.35
2023-05-01T11:26:47.846Z,958.35
2023-05-01T11:27:47.836Z,958.30
2023-05-01T11:28:47.802Z,958.33
2023-05-01T11:29:47.813Z,958.28
2023-05-01T11:30:47.780Z,958.32
2023-05-01T11:31:47.827Z,958.29
2023-05-01T11:32:47.804Z,958.28
2023-05-01T11:33:47.763Z,958.32
2023-05-01T11:35:50.806Z,958.28
2023-05-01T11:36:47.756Z,958.32
2023-05-01T11:37:48.693Z,958.31
2023-05-01T11:38:47.796Z,958.36
2023-05-01T11:39:47.705Z,958.35
2023-05-01T11:40:47.692Z,958.34
2023-05-01T11:41:47.725Z,958.38
2023-05-01T11:42:47.664Z,958.34
2023-05-01T11:43:47.651Z,958.37
2023-05-01T11:44:47.622Z,958.39
2023-05-01T11:45:47.630Z,958.39
2023-05-01T11:46:47.668Z,958.38
2023-05-01T11:47:47.633Z,958.37
2023-05-01T11:48:47.577Z,958.37
2023-05-01T11:49:47.636Z,958.38
2023-05-01T11:50:50.555Z,958.38
2023-05-01T11:51:47.548Z,958.41
2023-05-01T11:52:47.573Z,958.40
2023-05-01T11:53:47.610Z,958.45
2023-05-01T11:55:47.638Z,958.46
2023-05-01T11:56:47.593Z,958.47
2023-05-01T11:57:48.576Z,958.47
2023-05-01T11:58:48.490Z,958.44
2023-05-01T11:59:47.554Z,958.41
2023-05-01T12:00:47.684Z,958.44
2023-05-01T12:01:47.630Z,958.42
2023-05-01T12:03:48.583Z,958.45
2023-05-01T12:05:50.511Z,958.44
2023-05-01T12:06:48.679Z,958.45
2023-05-01T12:07:47.572Z,958.50
2023-05-01T12:08:47.437Z,958.46
2023-05-01T12:09:47.700Z,958.51
2023-05-01T12:10:48.003Z,958.46
2023-05-01T12:11:47.334Z,958.48
2023-05-01T12:12:47.359Z,958.47
2023-05-01T12:13:47.352Z,958.45
2023-05-01T12:14:47.323Z,958.48
2023-05-01T12:15:47.296Z,958.47
2023-05-01T12:16:47.384Z,958.48
2023-05-01T12:17:47.349Z,958.47
2023-05-01T12:18:47.260Z,958.47
2023-05-01T12:19:47.306Z,958.49
2023-05-01T12:20:50.300Z,958.48
2023-05-01T12:21:47.264Z,958.50
2023-05-01T12:22:47.220Z,958.51
2023-05-01T12:23:47.284Z,958.50
2023-05-01T12:24:47.198Z,958.52
2023-05-01T12:25:47.221Z,958.52
2023-05-01T12:26:47.173Z,958.53
2023-05-01T12:27:47.198Z,958.51
2023-05-01T12:28:47.152Z,958.50
2023-05-01T12:29:47.144Z,958.46
2023-05-01T12:30:47.163Z,958.47
2023-05-01T12:31:47.204Z,958.49
2023-05-01T12:32:47.231Z,958.51
2023-05-01T12:33:47.238Z,958.48
2023-05-01T12:34:47.116Z,958.51
2023-05-01T12:35:50.105Z,958.49
2023-05-01T12:37:47.063Z,958.48
2023-05-01T12:38:47.044Z,958.47
2023-05-01T12:39:47.042Z,958.47
2023-05-01T12:40:47.045Z,958.46
2023-05-01T12:41:47.040Z,958.49
2023-05-01T12:42:46.993Z,958.46
2023-05-01T12:44:47.037Z,958.44
2023-05-01T12:45:46.988Z,958.49
2023-05-01T12:46:47.042Z,958.49
2023-05-01T12:47:47.021Z,958.47
2023-05-01T12:49:46.957Z,958.49
2023-05-01T12:50:51.571Z,958.53
2023-05-01T12:51:46.917Z,958.48
2023-05-01T12:52:46.894Z,958.51
2023-05-01T12:53:46.923Z,958.46
2023-05-01T12:54:46.896Z,958.48
2023-05-01T12:55:46.916Z,958.47
2023-05-01T12:56:46.889Z,958.48
2023-05-01T12:57:46.890Z,958.46
2023-05-01T12:58:46.866Z,958.47